Flight Track Log - Related Links

Times and Time Zones

All times are in EDT time to prevent confusion due to time zone crossing. See the N894KS flight status page for this flight to view local times or setup timezone preferences in your user account.

Time Position Orientation Groundspeed Altitude Reporting Facility
EDT Latitude Longitude Course Direction KTS MPH feet Rate Location/Type
Fri 07:27:40 PM 34.0000 -118.4833 271° West 168 193 1,800  Level Southern California TRACON
Fri 07:28:11 PM 34.0003 -118.5208 271° West 227 261 2,900 3,032 Climbing Los Angeles Center
Fri 07:29:13 PM 33.9756 -118.6044 250° West 267 307 6,500 1,984 Climbing Los Angeles Center
Fri 07:30:15 PM 33.9367 -118.6956 243° Southwest 285 328 7,000 864 Climbing Los Angeles Center
Fri 07:31:18 PM 33.9233 -118.7800 259° West 284 327 8,300 2,064 Climbing Los Angeles Center
Fri 07:32:20 PM 33.9106 -118.8758 261° West 291 335 11,300 2,758 Climbing Los Angeles Center
Fri 07:33:22 PM 33.9444 -118.9964 289° West 319 367 14,000 2,274 Climbing Los Angeles Center
Fri 07:34:24 PM 33.9792 -119.0983 292° West 332 382 16,000 968 Climbing Los Angeles Center
Fri 07:35:26 PM 34.0400 -119.1978 306° West 384 442 16,000 -48 Level Los Angeles Center
Fri 07:36:28 PM 34.1175 -119.2886 316° Northwest 389 448 15,900  Descending Los Angeles Center
Fri 07:37:30 PM 34.1881 -119.3803 313° West 376 433 16,000  Climbing Los Angeles Center
Fri 07:38:32 PM 34.2597 -119.4739 313° West 379 436 15,900 -48 Descending Los Angeles Center
Fri 07:39:34 PM 34.3519 -119.5881 314° West 391 450 15,900 48 Level Los Angeles Center
Fri 07:40:36 PM 34.4089 -119.6642 312° West 386 444 16,000 48 Climbing Los Angeles Center
Fri 07:41:39 PM 34.4972 -119.7783 313° West 386 444 16,000  Level Los Angeles Center
Fri 07:42:41 PM 34.5714 -119.8725 314° West 387 445 16,000  Level Los Angeles Center
Fri 07:43:43 PM 34.6481 -119.9708 313° West 386 444 16,000 -532 Level Los Angeles Center
Fri 07:44:45 PM 34.7219 -120.0639 314° West 383 441 14,900 -1,500 Descending Los Angeles Center
Fri 07:45:47 PM 34.8003 -120.1503 318° Northwest 372 428 12,900 -2,032 Descending Los Angeles Center
Fri 07:46:49 PM 34.8833 -120.2214 325° Northwest 368 423 10,700 -1,984 Descending Los Angeles Center
Fri 07:47:51 PM 34.9708 -120.3044 322° Northwest 348 400 8,800 -1,935 Descending Los Angeles Center
Fri 07:48:53 PM 35.0319 -120.3619 322° Northwest 307 353 6,700 -1,742 Descending Los Angeles Center
Fri 07:49:55 PM 35.0869 -120.4147 322° Northwest 269 310 5,200 -1,452 Descending Los Angeles Center
Fri 07:50:57 PM 35.1378 -120.4667 320° Northwest 249 287 3,700 -1,306 Descending Los Angeles Center
Fri 07:51:59 PM 35.1742 -120.5297 305° West 235 270 2,500 -1,008 Descending Los Angeles Center
Fri 07:53:02 PM 35.2089 -120.5961 303° West 224 258 1,600 -857 Descending Los Angeles Center
Fri 07:55:00 PM 35.2333 -120.6333 313° West  Level FlightAware Approximate
Fri 08:02:00 PM 35.2373 -120.6426 313° West  Level Estimated

Login

Don't have an account? Register now (free) for customized features, flight alerts, and more!